Terminal Aerodrome Forecast
Issued by NWS

Home | Current Version | Previous Version | Graphics & Text | Print | Product List | Glossary On
Versions: 1 2 3 4 5 6 7 8 9 10 11 12 13 14
000
FTUS43 KGRB 141900 AAA
TAFCWA
TAF AMD
KCWA 141902Z 1419/1518 24012G21KT P6SM BKN045
     FM142300 25005KT P6SM FEW045 BKN150
     FM150700 23003KT P6SM VCSH BKN080
      TEMPO 1509/1513 -SHRA BKN045
     FM151600 29007KT P6SM BKN028=

USA.gov is the U.S. government's official web portal to all federal, state and local government web resources and services.